logo
Rechercher aéroport 
image banner adimage banner adimage banner ad
image banner ad

CA737 - Matagami (Csw8)

Situé à , Canada

ICAO - , IATA -

Données fournies par Airmate  

Information générale

Coordonnées: N49°44'4" W77°37'11"
Élévation : feet MSL.
 
Voir autres Aéroports à Quebec

Données opérationnelles

Special qualification required
Heure actuelle UTC:
Heure actuelle locale:
Météo à : CYNM - Matagami ( 13 km )
METAR: CYNM 070100Z AUTO 17014KT 9SM OVC120 M12/M16 A3012 RMK SLP233
Voir NOTAMs / SUP AIP / TFR affectant cet aéroport [VIEW]
Fréquences de communication: [VIEW]

Pistes:

Coordonnées de l'aéroport

Adresse: Canada

Vue satellite de CA737